Time;durP1;ratioP1;P1;durP2;ratioP2;P2;SDS_P1;SDS_P2;PMS_P1;PMS_P2;Temp;Humidity;BMP_temperature;BMP_pressure;BME280_temperature;BME280_humidity;BME280_pressure;Samples;Min_cycle;Max_cycle;Signal;HPM_P1;HPM_P2
2022/03/29 00:01:25;;;;;;;23.80;14.40;;;;;;;;;;5050895;28;20469;-58
2022/03/29 00:03:51;;;;;;;23.63;14.60;;;;;;;;;;5051178;28;20886;-58
2022/03/29 00:06:17;;;;;;;27.77;15.20;;;;;;;;;;5032970;28;20996;-58
2022/03/29 00:08:43;;;;;;;25.80;16.40;;;;;;;;;;5051205;28;20519;-57
2022/03/29 00:11:09;;;;;;;24.20;14.50;;;;;;;;;;5051077;28;20506;-58
2022/03/29 00:13:36;;;;;;;30.13;14.90;;;;;;;;;;5051219;28;20423;-58
2022/03/29 00:16:02;;;;;;;33.97;15.23;;;;;;;;;;5051056;28;20459;-57
2022/03/29 00:18:28;;;;;;;27.00;14.00;;;;;;;;;;5051119;28;20974;-58
2022/03/29 00:20:54;;;;;;;27.97;15.00;;;;;;;;;;5051051;28;21132;-58
2022/03/29 00:23:20;;;;;;;41.00;16.57;;;;;;;;;;5032696;28;20442;-57
2022/03/29 00:25:46;;;;;;;25.40;15.30;;;;;;;;;;5050917;28;20427;-58
2022/03/29 00:28:13;;;;;;;24.53;16.13;;;;;;;;;;5050827;28;20499;-57
2022/03/29 00:30:40;;;;;;;26.40;15.50;;;;;;;;;;5051105;28;20431;-58
2022/03/29 00:33:07;;;;;;;28.67;16.50;;;;;;;;;;5050957;28;20415;-58
2022/03/29 00:35:33;;;;;;;30.07;17.80;;;;;;;;;;5051066;28;20498;-58
2022/03/29 00:37:59;;;;;;;32.20;18.30;;;;;;;;;;5043472;28;20567;-57
2022/03/29 00:40:25;;;;;;;29.47;17.17;;;;;;;;;;5032465;28;20493;-57
2022/03/29 00:42:51;;;;;;;38.90;17.20;;;;;;;;;;5050693;28;20415;-58
2022/03/29 00:45:17;;;;;;;34.10;17.37;;;;;;;;;;5050652;28;20454;-57
2022/03/29 00:47:43;;;;;;;28.10;17.93;;;;;;;;;;5050763;28;20424;-58
2022/03/29 00:50:10;;;;;;;35.40;17.70;;;;;;;;;;5032874;28;20431;-57
2022/03/29 00:52:37;;;;;;;32.33;18.87;;;;;;;;;;5053058;28;20435;-57
2022/03/29 00:55:03;;;;;;;37.13;19.00;;;;;;;;;;5036494;28;20538;-57
2022/03/29 00:57:30;;;;;;;37.13;20.83;;;;;;;;;;5049069;28;21021;-57
2022/03/29 00:59:56;;;;;;;32.37;18.43;;;;;;;;;;5050975;28;20465;-57
2022/03/29 01:02:22;;;;;;;30.70;19.93;;;;;;;;;;5054377;28;20423;-57
2022/03/29 01:04:48;;;;;;;44.23;20.07;;;;;;;;;;5036476;28;20482;-57
2022/03/29 01:07:14;;;;;;;35.23;20.00;;;;;;;;;;5034647;28;20431;-57
2022/03/29 01:09:40;;;;;;;38.57;20.67;;;;;;;;;;5030431;28;20435;-57
2022/03/29 01:12:08;;;;;;;33.40;20.67;;;;;;;;;;5053923;28;20523;-57
2022/03/29 01:14:34;;;;;;;32.03;18.17;;;;;;;;;;5035952;28;20780;-57
2022/03/29 01:19:47;;;;;;;33.97;20.23;;;;;;;;;;5054174;28;20462;-57
2022/03/29 01:22:13;;;;;;;36.17;19.73;;;;;;;;;;5053854;28;20986;-57
2022/03/29 01:24:46;;;;;;;37.80;20.97;;;;;;;;;;5053317;28;20415;-57
2022/03/29 01:27:12;;;;;;;36.23;19.60;;;;;;;;;;5036136;28;20777;-57
2022/03/29 01:29:39;;;;;;;35.97;18.63;;;;;;;;;;5047328;28;20440;-57
2022/03/29 01:32:09;;;;;;;45.23;20.40;;;;;;;;;;5033704;28;20590;-57
2022/03/29 01:34:37;;;;;;;36.93;20.47;;;;;;;;;;5053678;28;21101;-57
2022/03/29 01:37:06;;;;;;;34.50;19.80;;;;;;;;;;5053737;28;20430;-57
2022/03/29 01:39:35;;;;;;;37.90;21.30;;;;;;;;;;5047098;28;20456;-57
2022/03/29 01:42:01;;;;;;;35.20;20.37;;;;;;;;;;5053643;28;20427;-57
2022/03/29 01:44:27;;;;;;;35.23;20.27;;;;;;;;;;5035518;28;20431;-57
2022/03/29 01:46:53;;;;;;;40.33;19.90;;;;;;;;;;5035385;28;20450;-57
2022/03/29 01:49:19;;;;;;;39.83;22.20;;;;;;;;;;5053685;28;20434;-57
2022/03/29 01:51:46;;;;;;;31.87;19.63;;;;;;;;;;5053580;28;21148;-57
2022/03/29 01:54:12;;;;;;;41.20;19.90;;;;;;;;;;5035673;28;20861;-58
2022/03/29 01:56:38;;;;;;;39.47;21.53;;;;;;;;;;5035512;28;20439;-58
2022/03/29 01:59:05;;;;;;;38.90;21.57;;;;;;;;;;5053209;28;21011;-57
2022/03/29 02:01:32;;;;;;;37.63;20.67;;;;;;;;;;5053442;28;20426;-57
2022/03/29 02:03:58;;;;;;;36.73;20.70;;;;;;;;;;5044195;28;20943;-58
2022/03/29 02:06:24;;;;;;;33.87;20.93;;;;;;;;;;5053310;28;20420;-58
2022/03/29 02:08:49;;;;;;;38.50;22.50;;;;;;;;;;5053248;28;20420;-57
2022/03/29 02:11:16;;;;;;;34.17;21.07;;;;;;;;;;5053234;28;20434;-58
2022/03/29 02:13:42;;;;;;;39.60;21.20;;;;;;;;;;5052883;28;20423;-58
2022/03/29 02:16:08;;;;;;;39.73;19.60;;;;;;;;;;5052814;28;21122;-58
2022/03/29 02:18:34;;;;;;;34.77;21.70;;;;;;;;;;5044398;28;20439;-58
2022/03/29 02:21:00;;;;;;;39.40;21.40;;;;;;;;;;5052910;28;20428;-58
2022/03/29 02:23:26;;;;;;;42.87;21.07;;;;;;;;;;5035092;28;20486;-58
2022/03/29 02:25:52;;;;;;;38.50;21.70;;;;;;;;;;5053128;28;20427;-57
2022/03/29 02:28:18;;;;;;;37.50;19.73;;;;;;;;;;5052636;28;20436;-57
2022/03/29 02:30:44;;;;;;;34.67;20.40;;;;;;;;;;5052940;28;20467;-58
2022/03/29 02:33:10;;;;;;;41.63;22.47;;;;;;;;;;5052734;28;20435;-58
2022/03/29 02:35:36;;;;;;;33.73;21.20;;;;;;;;;;5043755;28;20432;-58
2022/03/29 02:38:02;;;;;;;36.03;22.10;;;;;;;;;;5052613;28;20510;-58
2022/03/29 02:40:28;;;;;;;37.73;20.33;;;;;;;;;;5052485;28;20463;-58
2022/03/29 02:42:55;;;;;;;33.40;19.50;;;;;;;;;;5034561;28;20937;-58
2022/03/29 02:45:22;;;;;;;36.43;20.50;;;;;;;;;;5044496;28;20510;-58
2022/03/29 02:47:52;;;;;;;36.23;20.30;;;;;;;;;;5034574;28;20503;-58
2022/03/29 02:50:19;;;;;;;34.67;20.33;;;;;;;;;;5043536;28;20439;-58
2022/03/29 02:52:46;;;;;;;39.13;21.10;;;;;;;;;;5042852;28;20431;-58
2022/03/29 02:55:12;;;;;;;32.67;19.90;;;;;;;;;;5052241;28;20423;-58
2022/03/29 02:57:38;;;;;;;30.30;18.90;;;;;;;;;;5034157;28;20438;-58
2022/03/29 03:00:05;;;;;;;35.17;21.20;;;;;;;;;;5051664;28;20498;-59
2022/03/29 03:02:32;;;;;;;34.67;20.77;;;;;;;;;;5051607;28;20458;-58
2022/03/29 03:04:59;;;;;;;32.13;20.83;;;;;;;;;;5051606;28;20530;-58
2022/03/29 03:07:25;;;;;;;37.40;20.17;;;;;;;;;;5042501;28;20446;-59
2022/03/29 03:09:51;;;;;;;36.73;21.77;;;;;;;;;;5051599;28;20894;-58
2022/03/29 03:12:18;;;;;;;33.53;20.27;;;;;;;;;;5051387;28;20420;-58
2022/03/29 03:14:44;;;;;;;32.87;20.97;;;;;;;;;;5051050;28;20543;-57
2022/03/29 03:17:10;;;;;;;38.70;23.10;;;;;;;;;;5051311;28;20830;-58
2022/03/29 03:19:36;;;;;;;42.43;22.50;;;;;;;;;;5051348;28;20819;-57
2022/03/29 03:22:02;;;;;;;39.00;22.47;;;;;;;;;;5049681;28;20416;-58
2022/03/29 03:24:28;;;;;;;32.83;21.80;;;;;;;;;;5044495;28;20542;-58
2022/03/29 03:26:54;;;;;;;30.07;19.80;;;;;;;;;;5051134;28;20506;-58
2022/03/29 03:29:20;;;;;;;36.47;22.83;;;;;;;;;;5051258;28;20204;-58
2022/03/29 03:31:47;;;;;;;34.77;21.17;;;;;;;;;;5033010;28;20831;-58
2022/03/29 03:34:13;;;;;;;35.80;22.43;;;;;;;;;;5051178;28;20905;-58
2022/03/29 03:36:39;;;;;;;41.17;23.10;;;;;;;;;;5033185;28;20925;-59
2022/03/29 03:39:05;;;;;;;42.83;24.13;;;;;;;;;;5041764;28;20824;-58
2022/03/29 03:41:32;;;;;;;37.53;23.57;;;;;;;;;;5051435;28;20514;-58
2022/03/29 03:43:59;;;;;;;36.57;22.70;;;;;;;;;;5051545;28;20236;-58
2022/03/29 03:46:25;;;;;;;45.73;23.63;;;;;;;;;;5051614;28;20423;-56
2022/03/29 03:48:52;;;;;;;39.87;25.00;;;;;;;;;;5051506;28;20412;-57
2022/03/29 03:51:18;;;;;;;39.63;26.97;;;;;;;;;;5051429;28;20420;-58
2022/03/29 03:53:44;;;;;;;42.20;25.87;;;;;;;;;;5050462;28;20430;-58
2022/03/29 03:56:10;;;;;;;38.40;23.90;;;;;;;;;;5042917;28;20889;-58
2022/03/29 03:58:36;;;;;;;42.70;25.00;;;;;;;;;;5033463;28;20470;-59
2022/03/29 04:01:02;;;;;;;39.53;26.10;;;;;;;;;;5042985;28;20463;-59
2022/03/29 04:03:28;;;;;;;43.77;24.83;;;;;;;;;;5027150;28;20975;-58
2022/03/29 04:05:55;;;;;;;42.87;24.50;;;;;;;;;;5025093;28;20440;-59
2022/03/29 04:08:21;;;;;;;50.23;26.20;;;;;;;;;;5032800;28;20439;-58
2022/03/29 04:10:47;;;;;;;44.97;25.40;;;;;;;;;;5049205;28;20471;-59
2022/03/29 04:13:13;;;;;;;38.13;24.77;;;;;;;;;;5029422;28;20849;-57
2022/03/29 04:15:39;;;;;;;46.13;25.37;;;;;;;;;;5023121;28;20559;-58
2022/03/29 04:18:05;;;;;;;45.00;26.83;;;;;;;;;;5043113;28;20430;-59
2022/03/29 04:20:31;;;;;;;43.50;24.70;;;;;;;;;;5045973;28;20459;-56
2022/03/29 04:22:57;;;;;;;39.87;25.60;;;;;;;;;;5050732;28;20909;-63
2022/03/29 04:25:23;;;;;;;43.20;25.20;;;;;;;;;;5043104;28;20432;-61
2022/03/29 04:27:49;;;;;;;43.03;25.47;;;;;;;;;;5052673;28;20428;-65
2022/03/29 04:30:15;;;;;;;42.73;26.73;;;;;;;;;;5045997;28;20436;-60
2022/03/29 04:32:41;;;;;;;44.03;24.53;;;;;;;;;;5051625;28;20435;-61
2022/03/29 04:35:08;;;;;;;44.63;26.07;;;;;;;;;;5050054;28;20805;-60
2022/03/29 04:37:34;;;;;;;41.00;25.03;;;;;;;;;;5048766;28;20435;-62
2022/03/29 04:40:00;;;;;;;41.37;23.17;;;;;;;;;;5051842;28;20486;-62
2022/03/29 04:42:26;;;;;;;40.20;25.80;;;;;;;;;;5061652;28;20426;-63
2022/03/29 04:44:52;;;;;;;41.70;26.43;;;;;;;;;;5060474;28;20414;-61
2022/03/29 04:47:19;;;;;;;37.60;24.50;;;;;;;;;;5061726;28;20793;-62
2022/03/29 04:49:45;;;;;;;40.90;24.30;;;;;;;;;;5047711;28;20450;-60
2022/03/29 04:52:12;;;;;;;43.90;24.03;;;;;;;;;;5036769;28;20937;-60
2022/03/29 04:54:38;;;;;;;39.17;23.77;;;;;;;;;;5051756;28;20539;-61
2022/03/29 04:57:04;;;;;;;43.27;24.93;;;;;;;;;;5052573;28;20438;-62
2022/03/29 04:59:30;;;;;;;42.70;24.47;;;;;;;;;;5040910;28;20921;-63
2022/03/29 05:01:57;;;;;;;40.07;24.70;;;;;;;;;;5046074;28;20433;-62
2022/03/29 05:04:24;;;;;;;41.43;25.07;;;;;;;;;;5049081;28;20440;-64
2022/03/29 05:06:50;;;;;;;45.60;23.90;;;;;;;;;;5030921;28;20781;-64
2022/03/29 05:09:16;;;;;;;43.83;25.93;;;;;;;;;;5056280;28;20522;-65
2022/03/29 05:11:42;;;;;;;40.90;25.50;;;;;;;;;;5046239;28;20816;-65
2022/03/29 05:14:08;;;;;;;43.30;25.40;;;;;;;;;;5036078;28;20460;-65
2022/03/29 05:16:34;;;;;;;43.00;25.77;;;;;;;;;;5040695;28;20834;-66
2022/03/29 05:19:00;;;;;;;41.67;25.40;;;;;;;;;;5044495;28;20463;-70
2022/03/29 05:21:27;;;;;;;48.23;25.60;;;;;;;;;;5033543;28;20446;-70
2022/03/29 05:23:53;;;;;;;46.73;24.77;;;;;;;;;;5030723;28;21082;-67
2022/03/29 05:26:19;;;;;;;45.47;26.60;;;;;;;;;;5043111;28;20451;-69
2022/03/29 05:28:45;;;;;;;43.90;26.23;;;;;;;;;;5042399;28;20428;-69
2022/03/29 05:31:11;;;;;;;48.10;26.57;;;;;;;;;;5038374;28;20429;-69
2022/03/29 05:33:37;;;;;;;43.23;27.07;;;;;;;;;;5042394;28;20943;-65
2022/03/29 05:36:04;;;;;;;44.10;26.20;;;;;;;;;;5042630;28;20433;-63
2022/03/29 05:38:30;;;;;;;49.10;26.57;;;;;;;;;;5045713;28;20797;-68
2022/03/29 05:40:56;;;;;;;42.57;25.80;;;;;;;;;;5029059;28;20554;-72
2022/03/29 05:43:22;;;;;;;43.37;26.20;;;;;;;;;;5045366;28;20463;-72
2022/03/29 05:48:52;;;;;;;46.13;26.73;;;;;;;;;;5033360;28;20770;-70
2022/03/29 05:48:53;;;;;;;45.67;26.80;;;;;;;;;;5041119;28;20510;-69
2022/03/29 05:51:19;;;;;;;48.60;27.60;;;;;;;;;;5042285;28;20425;-68
2022/03/29 05:53:45;;;;;;;45.47;27.37;;;;;;;;;;5044626;28;20416;-67
2022/03/29 05:56:12;;;;;;;54.20;28.93;;;;;;;;;;5044634;28;20774;-68
2022/03/29 05:58:38;;;;;;;57.60;28.97;;;;;;;;;;5048836;28;20945;-69
2022/03/29 06:01:04;;;;;;;71.93;29.90;;;;;;;;;;5046570;28;20916;-70
2022/03/29 06:03:30;;;;;;;49.83;28.57;;;;;;;;;;5044525;28;20551;-67
2022/03/29 06:05:56;;;;;;;47.63;28.30;;;;;;;;;;5042677;28;20424;-70
2022/03/29 06:08:22;;;;;;;51.57;28.17;;;;;;;;;;5020728;28;20512;-69
2022/03/29 06:10:48;;;;;;;43.20;26.80;;;;;;;;;;5023392;28;20444;-66
2022/03/29 06:13:14;;;;;;;48.20;27.23;;;;;;;;;;5047383;28;20267;-69
2022/03/29 06:15:40;;;;;;;48.40;26.67;;;;;;;;;;5046008;28;20468;-68
2022/03/29 06:18:06;;;;;;;43.77;27.43;;;;;;;;;;5048819;28;20449;-68
2022/03/29 06:20:32;;;;;;;42.23;25.30;;;;;;;;;;5043479;28;20467;-68
2022/03/29 06:22:58;;;;;;;43.00;26.00;;;;;;;;;;5044202;28;20419;-68
2022/03/29 06:25:25;;;;;;;44.97;25.57;;;;;;;;;;5052618;28;20415;-67
2022/03/29 06:27:51;;;;;;;44.50;27.57;;;;;;;;;;5052845;28;20427;-69
2022/03/29 06:30:17;;;;;;;46.17;28.40;;;;;;;;;;5052788;28;20510;-69
2022/03/29 06:32:47;;;;;;;41.47;25.37;;;;;;;;;;5052926;28;20462;-67
2022/03/29 06:35:13;;;;;;;44.60;26.27;;;;;;;;;;5052679;28;20438;-67
2022/03/29 06:37:40;;;;;;;47.27;27.13;;;;;;;;;;5034788;28;20431;-67
2022/03/29 06:40:06;;;;;;;45.03;27.70;;;;;;;;;;5052484;28;20459;-68
2022/03/29 06:42:32;;;;;;;37.50;23.57;;;;;;;;;;5034622;28;20443;-68
2022/03/29 06:44:58;;;;;;;41.10;25.17;;;;;;;;;;5034642;28;20431;-68
2022/03/29 06:47:24;;;;;;;44.13;25.30;;;;;;;;;;5052503;28;20184;-68
2022/03/29 06:49:52;;;;;;;45.00;25.07;;;;;;;;;;5051714;28;20420;-68
2022/03/29 06:52:18;;;;;;;35.93;22.77;;;;;;;;;;5034521;28;20431;-68
2022/03/29 06:54:45;;;;;;;40.73;23.10;;;;;;;;;;5052029;28;20518;-68
2022/03/29 06:57:11;;;;;;;36.33;22.20;;;;;;;;;;5051997;28;20428;-68
2022/03/29 06:59:37;;;;;;;38.93;20.73;;;;;;;;;;5052154;28;20947;-68
2022/03/29 07:02:03;;;;;;;31.30;21.73;;;;;;;;;;5034287;28;20432;-68
2022/03/29 07:04:29;;;;;;;29.73;19.63;;;;;;;;;;5034413;28;20420;-68
2022/03/29 07:06:55;;;;;;;36.20;21.80;;;;;;;;;;5052402;28;20929;-68
2022/03/29 07:12:06;;;;;;;38.20;22.80;;;;;;;;;;5052050;28;20785;-68
2022/03/29 07:14:32;;;;;;;34.80;22.33;;;;;;;;;;5052245;28;20963;-68
2022/03/29 07:16:59;;;;;;;39.47;23.17;;;;;;;;;;5033921;28;20475;-68
2022/03/29 07:19:27;;;;;;;45.53;23.80;;;;;;;;;;5051897;28;20459;-68
2022/03/29 07:21:53;;;;;;;36.77;22.43;;;;;;;;;;5051775;28;20981;-68
2022/03/29 07:24:20;;;;;;;34.77;19.70;;;;;;;;;;5051666;28;21095;-68
2022/03/29 07:26:46;;;;;;;31.93;20.70;;;;;;;;;;5051657;28;20481;-68
2022/03/29 07:29:12;;;;;;;29.77;19.57;;;;;;;;;;5051219;28;20419;-67
2022/03/29 07:31:39;;;;;;;29.10;20.33;;;;;;;;;;5051573;28;20431;-68
2022/03/29 07:34:05;;;;;;;36.47;22.27;;;;;;;;;;5051724;28;20514;-68
2022/03/29 07:36:31;;;;;;;26.63;19.50;;;;;;;;;;5051637;28;20419;-68
2022/03/29 07:38:57;;;;;;;30.63;19.60;;;;;;;;;;5033639;28;20502;-68
2022/03/29 07:41:23;;;;;;;35.80;19.33;;;;;;;;;;5051416;28;20992;-68
2022/03/29 07:43:49;;;;;;;35.60;20.00;;;;;;;;;;5051566;28;20477;-68
2022/03/29 07:46:15;;;;;;;31.30;19.37;;;;;;;;;;5033455;28;20431;-68
2022/03/29 07:48:41;;;;;;;35.37;20.17;;;;;;;;;;5033608;28;21098;-67
2022/03/29 07:51:10;;;;;;;31.07;20.50;;;;;;;;;;5033385;28;20913;-67
2022/03/29 07:53:36;;;;;;;35.80;20.80;;;;;;;;;;5051386;28;20442;-68
2022/03/29 07:56:04;;;;;;;31.10;19.60;;;;;;;;;;5051223;28;20905;-68
2022/03/29 07:58:30;;;;;;;27.30;18.40;;;;;;;;;;5051298;28;20412;-67
2022/03/29 08:00:56;;;;;;;40.70;21.10;;;;;;;;;;5033077;28;20820;-67
2022/03/29 08:03:22;;;;;;;34.00;21.30;;;;;;;;;;5021699;28;20432;-68
2022/03/29 08:05:49;;;;;;;34.80;20.80;;;;;;;;;;5045370;28;20766;-68
2022/03/29 08:08:16;;;;;;;31.70;20.60;;;;;;;;;;5033082;28;20461;-68
2022/03/29 08:10:42;;;;;;;34.53;20.40;;;;;;;;;;5051036;28;20462;-68
2022/03/29 08:13:10;;;;;;;33.80;20.53;;;;;;;;;;5051061;28;20423;-67
2022/03/29 08:15:36;;;;;;;31.77;20.17;;;;;;;;;;5050581;28;20462;-67
2022/03/29 08:18:02;;;;;;;37.20;22.40;;;;;;;;;;5050508;28;20499;-67
2022/03/29 08:20:29;;;;;;;31.70;21.47;;;;;;;;;;5050627;28;21028;-67
2022/03/29 08:22:59;;;;;;;36.53;19.80;;;;;;;;;;5052351;28;20272;-67
2022/03/29 08:25:25;;;;;;;33.33;19.87;;;;;;;;;;5049159;28;20527;-67
2022/03/29 08:27:53;;;;;;;31.60;19.83;;;;;;;;;;5057232;28;20419;-67
2022/03/29 08:30:19;;;;;;;33.53;19.60;;;;;;;;;;5038133;28;20787;-68
2022/03/29 08:32:45;;;;;;;33.33;20.00;;;;;;;;;;5051365;28;20514;-67
2022/03/29 08:35:13;;;;;;;33.37;18.07;;;;;;;;;;5051453;28;20418;-68
2022/03/29 08:37:39;;;;;;;27.00;19.23;;;;;;;;;;5051036;28;20419;-67
2022/03/29 08:40:12;;;;;;;34.40;19.17;;;;;;;;;;5050674;28;20455;-68
2022/03/29 08:42:39;;;;;;;28.70;19.90;;;;;;;;;;5051038;28;20419;-67
2022/03/29 08:45:09;;;;;;;31.20;19.37;;;;;;;;;;5032983;28;20815;-67
2022/03/29 08:47:35;;;;;;;30.60;19.73;;;;;;;;;;5050901;28;20420;-67
2022/03/29 08:50:03;;;;;;;31.67;19.37;;;;;;;;;;5050755;28;20478;-68
2022/03/29 08:52:29;;;;;;;29.97;18.90;;;;;;;;;;5032953;28;20530;-68
2022/03/29 08:54:56;;;;;;;25.97;18.70;;;;;;;;;;5032860;28;20506;-68
2022/03/29 08:57:22;;;;;;;27.83;18.80;;;;;;;;;;5042679;28;20448;-68
2022/03/29 08:59:48;;;;;;;26.77;18.83;;;;;;;;;;5032599;28;20513;-68
2022/03/29 09:02:16;;;;;;;31.77;19.83;;;;;;;;;;5032837;28;20809;-68
2022/03/29 09:04:43;;;;;;;37.27;20.10;;;;;;;;;;5050679;28;20423;-68
2022/03/29 09:07:09;;;;;;;32.33;20.67;;;;;;;;;;5050648;28;20422;-67
2022/03/29 09:09:37;;;;;;;36.00;20.10;;;;;;;;;;5050587;28;20514;-68
2022/03/29 09:12:16;;;;;;;30.27;19.40;;;;;;;;;;5050617;28;20422;-68
2022/03/29 09:14:54;;;;;;;35.60;19.50;;;;;;;;;;5054218;28;20427;-68
2022/03/29 09:17:26;;;;;;;30.50;20.03;;;;;;;;;;5054095;28;20494;-67
2022/03/29 09:19:52;;;;;;;27.17;18.50;;;;;;;;;;5054331;28;20951;-67
2022/03/29 09:22:34;;;;;;;29.97;20.20;;;;;;;;;;5036254;28;20470;-68
2022/03/29 09:25:00;;;;;;;32.70;19.03;;;;;;;;;;5036323;28;20825;-68
2022/03/29 09:27:26;;;;;;;30.83;19.60;;;;;;;;;;5054120;28;20431;-68
2022/03/29 09:30:11;;;;;;;39.33;21.07;;;;;;;;;;5054173;28;20427;-67
2022/03/29 09:32:50;;;;;;;26.63;17.93;;;;;;;;;;5047878;28;20423;-67
2022/03/29 09:35:17;;;;;;;37.10;20.60;;;;;;;;;;5054009;28;20962;-67
2022/03/29 09:37:45;;;;;;;30.97;20.00;;;;;;;;;;5053955;28;20419;-68
2022/03/29 09:40:11;;;;;;;25.90;18.20;;;;;;;;;;5053767;28;20463;-68
2022/03/29 09:42:39;;;;;;;32.57;20.20;;;;;;;;;;5053888;28;20842;-68
2022/03/29 09:45:05;;;;;;;31.43;19.87;;;;;;;;;;5053484;28;20415;-68
2022/03/29 09:47:31;;;;;;;29.13;19.47;;;;;;;;;;5035399;28;20431;-67
2022/03/29 09:49:59;;;;;;;30.83;17.90;;;;;;;;;;5053164;28;20459;-67
2022/03/29 09:52:45;;;;;;;29.40;19.20;;;;;;;;;;5053543;28;20427;-68
2022/03/29 09:55:20;;;;;;;31.63;19.47;;;;;;;;;;5053018;28;20510;-67
2022/03/29 10:03:55;;;;;;;27.53;18.60;;;;;;;;;;5013755;28;20606;-70
2022/03/29 10:06:41;;;;;;;26.33;17.43;;;;;;;;;;5026837;28;20412;-69
2022/03/29 10:15:07;;;;;;;33.23;20.60;;;;;;;;;;5030740;28;20419;-70
2022/03/29 10:20:26;;;;;;;32.43;18.93;;;;;;;;;;5044702;28;20502;-69
2022/03/29 10:23:07;;;;;;;29.53;20.10;;;;;;;;;;5052714;28;20434;-70
2022/03/29 10:25:39;;;;;;;33.43;20.07;;;;;;;;;;5044271;28;20434;-71
2022/03/29 10:28:26;;;;;;;35.70;21.30;;;;;;;;;;5042631;28;20492;-70
2022/03/29 10:30:53;;;;;;;25.80;17.47;;;;;;;;;;5034476;28;20427;-72
2022/03/29 10:33:23;;;;;;;28.00;18.93;;;;;;;;;;5034221;28;20489;-69
2022/03/29 10:35:59;;;;;;;27.13;18.30;;;;;;;;;;5034389;28;20531;-69
2022/03/29 10:38:54;;;;;;;33.03;19.83;;;;;;;;;;5026434;28;20434;-70
2022/03/29 10:41:27;;;;;;;25.30;17.90;;;;;;;;;;5042397;28;20432;-71
2022/03/29 10:44:05;;;;;;;;;;;;;;;;;;;;;
2022/03/29 10:46:54;;;;;;;31.30;18.80;;;;;;;;;;5044889;28;20426;-71
2022/03/29 10:49:24;;;;;;;29.73;18.90;;;;;;;;;;5033893;28;20535;-72
2022/03/29 10:51:52;;;;;;;32.20;18.87;;;;;;;;;;5033975;28;20436;-70
2022/03/29 10:54:27;;;;;;;36.63;18.87;;;;;;;;;;5033580;28;20463;-70
2022/03/29 10:56:57;;;;;;;30.23;18.50;;;;;;;;;;5051889;28;20943;-68
2022/03/29 10:59:28;;;;;;;27.87;17.13;;;;;;;;;;5043826;28;20489;-72
2022/03/29 11:02:10;;;;;;;27.60;17.90;;;;;;;;;;5033759;28;20948;-70
2022/03/29 11:04:37;;;;;;;25.60;17.20;;;;;;;;;;5022446;28;20423;-69
2022/03/29 11:07:06;;;;;;;29.00;18.20;;;;;;;;;;5048972;28;21046;-69
2022/03/29 11:09:33;;;;;;;23.03;16.00;;;;;;;;;;5051508;28;20423;-69
2022/03/29 11:12:20;;;;;;;29.90;17.90;;;;;;;;;;5051606;28;20893;-70
2022/03/29 11:14:46;;;;;;;24.80;17.40;;;;;;;;;;5033397;28;21020;-69
2022/03/29 11:17:13;;;;;;;29.37;18.97;;;;;;;;;;5044590;28;20846;-68
2022/03/29 11:19:46;;;;;;;33.93;20.23;;;;;;;;;;5034014;28;20549;-71
2022/03/29 11:22:47;;;;;;;31.53;19.07;;;;;;;;;;5031673;28;20434;-71
2022/03/29 11:25:24;;;;;;;34.20;18.97;;;;;;;;;;5042038;28;20459;-72
2022/03/29 11:30:51;;;;;;;25.57;18.07;;;;;;;;;;5046498;28;20419;-68
2022/03/29 11:33:17;;;;;;;29.13;18.37;;;;;;;;;;5051311;28;20797;-68
2022/03/29 11:35:52;;;;;;;43.50;20.40;;;;;;;;;;5032993;28;20419;-72
2022/03/29 11:38:30;;;;;;;28.23;18.50;;;;;;;;;;5051190;28;20427;-67
2022/03/29 11:40:56;;;;;;;28.33;18.00;;;;;;;;;;5033316;28;20500;-69
2022/03/29 11:43:25;;;;;;;30.40;19.73;;;;;;;;;;5051336;28;20939;-70
2022/03/29 11:45:53;;;;;;;27.10;19.67;;;;;;;;;;5033620;28;20518;-68
2022/03/29 11:48:26;;;;;;;29.03;19.67;;;;;;;;;;5051351;28;20416;-70
2022/03/29 11:50:54;;;;;;;23.50;16.93;;;;;;;;;;5051391;28;20423;-71
2022/03/29 11:53:22;;;;;;;24.97;16.50;;;;;;;;;;5033473;28;20454;-72
2022/03/29 11:56:00;;;;;;;29.30;18.30;;;;;;;;;;5032963;28;20933;-68
2022/03/29 11:58:31;;;;;;;27.53;18.70;;;;;;;;;;5043823;28;20783;-69
2022/03/29 12:01:07;;;;;;;27.53;18.40;;;;;;;;;;5029916;28;20523;-69
2022/03/29 12:03:42;;;;;;;26.57;18.07;;;;;;;;;;5051210;28;20419;-69
2022/03/29 12:06:16;;;;;;;25.00;17.40;;;;;;;;;;5032982;28;20430;-68
2022/03/29 12:08:52;;;;;;;29.33;19.80;;;;;;;;;;5051315;28;20506;-69
2022/03/29 12:11:21;;;;;;;28.40;18.80;;;;;;;;;;5032947;28;20424;-69
2022/03/29 12:13:48;;;;;;;28.20;18.07;;;;;;;;;;5033347;28;20428;-71
2022/03/29 12:16:22;;;;;;;24.63;17.60;;;;;;;;;;5033116;28;20494;-69
2022/03/29 12:18:49;;;;;;;29.03;17.80;;;;;;;;;;5051409;28;20450;-71
2022/03/29 12:21:17;;;;;;;23.07;16.57;;;;;;;;;;5033816;28;20556;-70
2022/03/29 12:24:19;;;;;;;22.27;17.30;;;;;;;;;;5052247;28;20434;-70
2022/03/29 12:27:01;;;;;;;23.50;16.10;;;;;;;;;;5047900;28;20641;-71
2022/03/29 12:29:28;;;;;;;22.40;16.60;;;;;;;;;;5022818;28;20805;-71
2022/03/29 12:31:55;;;;;;;30.90;18.40;;;;;;;;;;5046933;28;20450;-70
2022/03/29 12:34:23;;;;;;;25.13;16.47;;;;;;;;;;5025728;28;20438;-70
2022/03/29 12:36:54;;;;;;;25.70;15.73;;;;;;;;;;5051623;28;20415;-71
2022/03/29 12:39:20;;;;;;;27.40;16.13;;;;;;;;;;5033461;28;20471;-69
2022/03/29 12:41:52;;;;;;;24.43;17.03;;;;;;;;;;5051395;28;20439;-70
2022/03/29 12:44:38;;;;;;;23.27;15.60;;;;;;;;;;5034237;28;20427;-68
2022/03/29 12:47:08;;;;;;;24.67;16.73;;;;;;;;;;5053593;28;20487;-70
2022/03/29 12:49:35;;;;;;;29.33;17.43;;;;;;;;;;5038459;28;20431;-71
2022/03/29 12:52:03;;;;;;;24.30;17.10;;;;;;;;;;5037421;28;20959;-69
2022/03/29 12:54:34;;;;;;;32.23;16.80;;;;;;;;;;5030647;28;20423;-67
2022/03/29 12:57:00;;;;;;;23.23;15.53;;;;;;;;;;5055069;28;20419;-68
2022/03/29 12:59:35;;;;;;;25.00;14.77;;;;;;;;;;5036591;28;20857;-68
2022/03/29 13:02:15;;;;;;;28.57;15.10;;;;;;;;;;5054766;28;20445;-69
2022/03/29 13:04:46;;;;;;;31.60;16.40;;;;;;;;;;5054762;28;20415;-67
2022/03/29 13:07:13;;;;;;;31.70;15.53;;;;;;;;;;5054597;28;20451;-68
2022/03/29 13:09:56;;;;;;;28.13;16.67;;;;;;;;;;5054300;28;20415;-67
2022/03/29 13:12:22;;;;;;;36.87;22.77;;;;;;;;;;5046454;28;20422;-68
2022/03/29 13:14:49;;;;;;;43.17;27.00;;;;;;;;;;5054401;28;20419;-68
2022/03/29 13:17:15;;;;;;;37.10;23.53;;;;;;;;;;5054094;28;20458;-68
2022/03/29 13:19:56;;;;;;;41.40;25.57;;;;;;;;;;5036222;28;20459;-68
2022/03/29 13:22:22;;;;;;;50.27;26.37;;;;;;;;;;5041411;28;20428;-67
2022/03/29 13:24:48;;;;;;;32.10;19.17;;;;;;;;;;5049407;28;20427;-68
2022/03/29 13:27:14;;;;;;;33.47;19.23;;;;;;;;;;5054277;28;20535;-68
2022/03/29 13:29:41;;;;;;;28.97;18.70;;;;;;;;;;5036323;28;20442;-68
2022/03/29 13:32:08;;;;;;;41.80;21.47;;;;;;;;;;5036041;28;20419;-68
2022/03/29 13:34:34;;;;;;;32.90;21.07;;;;;;;;;;5054125;28;20822;-68
2022/03/29 13:37:00;;;;;;;31.07;17.10;;;;;;;;;;5053895;28;20420;-67
2022/03/29 13:39:26;;;;;;;33.40;19.60;;;;;;;;;;5053539;28;20251;-67
2022/03/29 13:41:53;;;;;;;27.93;17.90;;;;;;;;;;5053694;28;20181;-66
2022/03/29 13:44:19;;;;;;;24.87;18.07;;;;;;;;;;5053495;28;20477;-68
2022/03/29 13:46:45;;;;;;;22.60;16.53;;;;;;;;;;5053842;28;20423;-63
2022/03/29 13:49:13;;;;;;;27.93;18.97;;;;;;;;;;5053470;28;20489;-63
2022/03/29 13:51:40;;;;;;;34.77;18.90;;;;;;;;;;5035757;28;20423;-67
2022/03/29 13:54:06;;;;;;;25.63;18.07;;;;;;;;;;5053534;28;20908;-62
2022/03/29 13:56:32;;;;;;;30.37;19.60;;;;;;;;;;5053674;28;20951;-59
2022/03/29 13:59:01;;;;;;;27.40;17.93;;;;;;;;;;5035037;28;20742;-58
2022/03/29 14:01:28;;;;;;;23.37;18.00;;;;;;;;;;5053486;28;20424;-60
2022/03/29 14:03:54;;;;;;;27.50;17.53;;;;;;;;;;5052856;28;20423;-59
2022/03/29 14:06:21;;;;;;;24.83;16.60;;;;;;;;;;5052761;28;20412;-60
2022/03/29 14:08:48;;;;;;;25.33;17.57;;;;;;;;;;5034861;28;20428;-58
2022/03/29 14:11:14;;;;;;;23.57;16.13;;;;;;;;;;5053076;28;20453;-58
2022/03/29 14:13:43;;;;;;;24.30;16.13;;;;;;;;;;5053494;28;20426;-60
2022/03/29 14:16:10;;;;;;;25.73;17.57;;;;;;;;;;5035731;28;20510;-60
2022/03/29 14:18:36;;;;;;;29.67;19.23;;;;;;;;;;5035856;28;20428;-60
2022/03/29 14:21:02;;;;;;;31.53;18.23;;;;;;;;;;5053892;28;21008;-58
2022/03/29 14:23:28;;;;;;;27.60;19.87;;;;;;;;;;5035657;28;20776;-62
2022/03/29 14:25:55;;;;;;;29.13;18.70;;;;;;;;;;5053851;28;20458;-63
2022/03/29 14:28:22;;;;;;;34.70;18.97;;;;;;;;;;5053717;28;20502;-60
2022/03/29 14:30:49;;;;;;;30.43;16.87;;;;;;;;;;5053666;28;20434;-60
2022/03/29 14:33:15;;;;;;;30.70;18.00;;;;;;;;;;5053619;28;20419;-59
2022/03/29 14:35:44;;;;;;;27.17;16.27;;;;;;;;;;5053739;28;20439;-61
2022/03/29 14:38:10;;;;;;;25.73;16.13;;;;;;;;;;5034325;28;20435;-61
2022/03/29 14:40:36;;;;;;;31.10;20.20;;;;;;;;;;5031287;28;20982;-60
2022/03/29 14:43:02;;;;;;;25.87;17.67;;;;;;;;;;5049822;28;20424;-59
2022/03/29 14:45:28;;;;;;;25.63;17.27;;;;;;;;;;5045958;28;20424;-58
2022/03/29 14:47:55;;;;;;;28.10;18.47;;;;;;;;;;5045122;28;20447;-60